Fernwood, New York
Current Conditions -  °F | °C
As of 10:54 AM on Thursday 23 Oct 2014 (Local Time) from KFZY Reporting Station
Few Clouds Few Clouds  
Wind Chill: 51°   Ceiling: Unl
Heat Index: 51°   Visibility: 10mi
Dew Point: 38°   Wind: 20mph
Humidity: 61%   Direction: 350°N
Pressure: 30"   Gusts: 29mph
Location:  43.5166°N, 76.1253°W
Report Text: KFZY 231454Z AUTO 35017G25KT 10SM FEW027 11/03 A3000 RMK AO2 SLP160 T01060033 58005
Loading
Personal Weather Stations






























Interactive Weather Map
Tropical Storm Tracking
New forecast layout! Learn more

10-Day Weather Forecast

Advertisements
Track Severe Weather on mobile